19/7/06
Time Wind Dir Wind Spd Humidity Temp Raw Barom Tot Rain Wind Chill Dew Point DailyRain
  mph % C mb mm C C mm
12:00am 39 10 47 25.1 1018 2316.73 25.1 13.0 0.00
12:15am 44 12 47 24.9 1018 2316.73 24.9 12.9 0.00
12:30am 38 11 48 24.8 1018 2316.73 24.8 13.1 0.00
12:45am 42 12 49 24.8 1018 2316.73 24.8 13.4 0.00
1:00am 31 15 50 24.7 1018 2316.73 24.7 13.6 0.00
1:15am 44 11 50 24.7 1018 2316.73 24.7 13.6 0.00
1:30am 34 9 51 24.7 1018 2316.73 24.7 13.9 0.00
1:45am 52 6 52 24.5 1018 2316.73 24.5 14.0 0.00
2:00am 71 5 53 24.4 1017 2316.73 24.4 14.2 0.00
2:15am 32 8 54 24.2 1017 2316.73 24.2 14.3 0.00
2:30am 38 7 55 24.0 1017 2316.73 24.0 14.4 0.00
2:45am 31 9 56 23.8 1017 2316.73 23.8 14.5 0.00
3:00am 29 6 56 23.7 1017 2316.73 23.7 14.4 0.00
3:15am 4 5 57 23.6 1017 2316.73 23.6 14.6 0.00
3:30am 13 3 58 23.5 1017 2316.73 23.5 14.8 0.00
3:45am 352 3 59 23.3 1017 2316.73 23.3 14.9 0.00
4:00am 0 7 59 23.3 1017 2316.73 23.3 14.8 0.00
4:15am 0 0 60 23.1 1017 2316.73 23.1 14.9 0.00
4:30am 0 2 61 22.8 1017 2316.73 22.8 14.9 0.00
4:45am 353 2 63 22.4 1017 2316.73 22.4 15.0 0.00
5:00am 333 2 65 22.3 1017 2316.73 22.3 15.4 0.00
5:15am 330 2 66 22.1 1017 2316.73 22.1 15.5 0.00
5:30am 14 4 65 22.5 1017 2316.73 22.5 15.6 0.00
5:45am 349 2 61 23.6 1017 2316.73 23.6 15.7 0.00
6:00am 353 3 59 24.3 1017 2316.73 24.3 15.8 0.00
6:15am 4 7 59 24.3 1017 2316.73 24.3 15.8 0.00
6:30am 3 6 62 23.8 1017 2316.73 23.8 16.1 0.00
6:45am 353 4 61 23.8 1017 2316.73 23.8 15.9 0.00
7:00am 14 8 60 24.2 1017 2316.73 24.2 15.9 0.00
7:15am 25 5 59 24.4 1017 2316.73 24.4 15.9 0.00
7:30am 344 1 57 24.9 1016 2316.73 24.9 15.8 0.00
7:45am 11 7 55 25.4 1016 2316.73 25.4 15.7 0.00
8:00am 15 4 53 25.8 1016 2316.73 25.8 15.5 0.00
8:15am 39 5 50 26.4 1016 2316.73 26.4 15.1 0.00
8:30am 358 1 50 26.9 1016 2316.73 26.9 15.6 0.00
8:45am 25 0 49 27.8 1016 2316.73 27.8 16.1 0.00
9:00am 25 1 48 28.3 1016 2316.73 28.3 16.3 0.00
9:15am 45 4 43 28.5 1016 2316.73 28.5 14.7 0.00
9:30am 96 5 42 28.9 1016 2316.73 28.9 14.7 0.00
9:45am 131 5 41 29.4 1016 2316.73 29.4 14.8 0.00
10:00am 110 5 46 29.6 1016 2316.73 29.6 16.8 0.00
10:15am 118 6 49 29.6 1016 2316.73 29.6 17.8 0.00
10:30am 103 4 52 29.1 1016 2316.73 29.1 18.2 0.00
10:45am 105 8 50 28.7 1016 2316.73 28.7 17.2 0.00
11:00am 103 8 52 28.4 1016 2316.73 28.4 17.6 0.00
11:15am 88 9 51 28.2 1016 2316.73 28.2 17.1 0.00
11:30am 103 10 51 28.2 1016 2316.73 28.2 17.1 0.00
11:45am 75 10 49 28.3 1016 2316.73 28.3 16.6 0.00
12:00pm 77 4 47 28.7 1016 2316.73 28.7 16.3 0.00
12:15pm 86 12 45 29.0 1016 2316.73 29.0 15.9 0.00
12:30pm 86 5 39 29.7 1015 2316.73 29.7 14.3 0.00
12:45pm 90 7 37 30.3 1015 2316.73 30.3 14.0 0.00
1:00pm 95 6 39 30.5 1015 2316.73 30.5 15.0 0.00
1:15pm 102 8 41 30.6 1015 2316.73 30.6 15.9 0.00
1:30pm 85 1 43 30.7 1015 2316.73 30.7 16.7 0.00
1:45pm 76 3 42 30.6 1015 2316.73 30.6 16.2 0.00
2:00pm 100 9 42 30.6 1015 2316.73 30.6 16.2 0.00
2:15pm 98 10 45 30.4 1015 2316.73 30.4 17.1 0.00
2:30pm 94 12 47 29.8 1015 2316.73 29.8 17.3 0.00
2:45pm 110 18 47 29.7 1015 2316.73 29.7 17.2 0.00
3:00pm 106 16 45 30.2 1015 2316.73 30.2 17.0 0.00
3:15pm 96 14 41 30.5 1015 2316.73 30.5 15.8 0.00
3:30pm 75 8 41 30.4 1014 2316.73 30.4 15.7 0.00
3:45pm 88 10 41 30.4 1014 2316.73 30.4 15.7 0.00
4:00pm 99 4 45 30.7 1014 2316.73 30.7 17.4 0.00
4:15pm 108 2 48 30.1 1014 2316.73 30.1 17.9 0.00
4:30pm 179 17 49 29.5 1015 2316.73 29.5 17.7 0.00
4:45pm 208 8 48 29.3 1015 2316.73 29.3 17.1 0.00
5:00pm 166 4 49 29.4 1015 2316.73 29.4 17.6 0.00
5:15pm 141 0 46 29.9 1015 2316.73 29.9 17.1 0.00
5:30pm 104 4 44 30.2 1015 2316.73 30.2 16.6 0.00
5:45pm 123 5 48 29.7 1015 2316.73 29.7 17.5 0.00
6:00pm 118 4 52 28.7 1015 2316.73 28.7 17.9 0.00
6:15pm 176 10 54 27.9 1015 2316.73 27.9 17.8 0.00
6:30pm 189 11 59 26.9 1015 2316.73 26.9 18.2 0.00
6:45pm 193 7 61 26.3 1015 2316.73 26.3 18.2 0.00
7:00pm 202 4 61 26.3 1015 2316.73 26.3 18.2 0.00
7:15pm 139 5 60 26.7 1015 2316.73 26.7 18.3 0.00
7:30pm 131 0 59 26.7 1016 2316.73 26.7 18.1 0.00
7:45pm 127 4 59 26.8 1015 2316.73 26.8 18.1 0.00
8:00pm 215 10 63 25.9 1015 2316.73 25.9 18.3 0.00
8:15pm 230 5 63 25.4 1015 2316.73 25.4 17.8 0.00
8:30pm 227 7 67 24.7 1015 2316.73 24.7 18.1 0.00
8:45pm 239 8 69 24.0 1015 2316.73 24.0 18.0 0.00
9:00pm 259 0 69 24.1 1015 2316.73 24.1 18.1 0.00
9:15pm 234 0 68 24.3 1015 2316.73 24.3 18.0 0.00
9:30pm 133 4 69 24.2 1015 2316.73 24.2 18.2 0.00
9:45pm 134 1 70 24.2 1015 2316.73 24.2 18.4 0.00
10:00pm 221 4 71 24.1 1016 2316.73 24.1 18.5 0.00
10:15pm 130 12 72 23.6 1016 2316.73 23.6 18.3 0.00
10:30pm 132 15 73 23.0 1017 2316.73 23.0 17.9 0.00
10:45pm 138 13 74 22.5 1017 2316.99 22.5 17.6 0.25
11:00pm 129 9 76 22.3 1017 2316.99 22.3 17.9 0.25
11:15pm 85 3 76 22.4 1017 2316.99 22.4 18.0 0.25
11:30pm 81 1 75 22.4 1016 2316.99 22.4 17.7 0.25
11:45pm 82 0 75 22.4 1016 2316.99 22.4 17.8 0.25

 

 

/span>17.8 0.25